Time;durP1;ratioP1;P1;durP2;ratioP2;P2;SDS_P1;SDS_P2;PMS_P1;PMS_P2;Temp;Humidity;BMP_temperature;BMP_pressure;BME280_temperature;BME280_humidity;BME280_pressure;Samples;Min_cycle;Max_cycle;Signal;HPM_P1;HPM_P2
2022/12/03 00:00:09;;;;;;;21.50;13.18;;;;;;;5.22;58.89;101717.53;680158;29;1237;-83
2022/12/03 00:00:29;;;;;;;20.05;12.75;;;;;;;5.30;59.21;101718.94;677399;29;1123;-83
2022/12/03 00:00:50;;;;;;;19.60;13.02;;;;;;;5.24;59.23;101708.16;677673;29;820;-83
2022/12/03 00:01:12;;;;;;;19.13;12.83;;;;;;;5.28;58.96;101715.34;677610;29;1203;-83
2022/12/03 00:02:09;;;;;;;20.42;13.32;;;;;;;5.33;58.91;101722.63;675001;29;1092;-83
2022/12/03 00:02:29;;;;;;;23.45;14.98;;;;;;;5.26;59.12;101710.06;677862;29;900;-84
2022/12/03 00:02:50;;;;;;;23.17;15.30;;;;;;;5.27;59.03;101713.56;677669;29;1282;-83
2022/12/03 00:03:11;;;;;;;23.30;14.93;;;;;;;5.19;59.08;101698.44;677944;29;1189;-84
2022/12/03 00:03:34;;;;;;;22.88;14.32;;;;;;;5.29;59.01;101714.53;680417;29;990;-83
2022/12/03 00:03:55;;;;;;;21.83;13.40;;;;;;;5.24;59.21;101705.56;675437;29;1194;-83
2022/12/03 00:04:15;;;;;;;21.25;13.45;;;;;;;5.25;58.88;101702.19;677888;29;1270;-83
2022/12/03 00:04:36;;;;;;;20.05;13.32;;;;;;;5.34;58.93;101720.94;680720;29;1200;-83
2022/12/03 00:04:56;;;;;;;20.93;13.53;;;;;;;5.28;58.78;101703.28;680720;29;1265;-83
2022/12/03 00:05:17;;;;;;;21.67;13.57;;;;;;;5.26;59.13;101714.34;677884;29;1209;-83
2022/12/03 00:05:38;;;;;;;22.73;13.90;;;;;;;5.24;58.92;101706.50;680722;29;1258;-83
2022/12/03 00:05:58;;;;;;;22.07;13.80;;;;;;;5.26;58.94;101698.81;680698;29;1312;-83
2022/12/03 00:07:11;;;;;;;21.30;13.73;;;;;;;5.36;58.96;101721.91;683117;29;1263;-83
2022/12/03 00:07:33;;;;;;;21.55;13.20;;;;;;;5.31;58.87;101710.34;677959;29;1043;-83
2022/12/03 00:07:53;;;;;;;20.73;13.23;;;;;;;5.29;58.75;101709.38;675504;29;1048;-83
2022/12/03 00:08:14;;;;;;;21.38;13.95;;;;;;;5.26;59.02;101714.34;677970;29;1072;-83
2022/12/03 00:08:35;;;;;;;22.90;14.57;;;;;;;5.24;58.82;101705.56;675523;29;1399;-83
2022/12/03 00:08:55;;;;;;;22.87;14.40;;;;;;;5.31;58.83;101718.13;678020;29;1256;-82
2022/12/03 00:09:16;;;;;;;21.25;13.70;;;;;;;5.29;58.80;101709.38;678196;29;1088;-83
2022/12/03 00:09:36;;;;;;;19.47;13.00;;;;;;;5.31;58.37;101708.69;678442;29;768;-83
2022/12/03 00:09:57;;;;;;;20.03;13.23;;;;;;;5.26;58.72;101706.56;678057;29;1199;-83
2022/12/03 00:10:17;;;;;;;18.90;12.93;;;;;;;5.28;58.49;101707.59;680554;29;1237;-83
2022/12/03 00:10:38;;;;;;;18.83;12.93;;;;;;;5.26;58.92;101703.97;678123;29;1286;-83
2022/12/03 00:10:59;;;;;;;19.70;13.17;;;;;;;5.29;58.74;101710.25;683329;29;1294;-83
2022/12/03 00:11:19;;;;;;;20.30;13.02;;;;;;;5.24;58.76;101706.50;675280;29;1295;-83
2022/12/03 00:11:40;;;;;;;20.95;13.48;;;;;;;5.27;58.94;101710.97;678196;29;1212;-83
2022/12/03 00:12:00;;;;;;;20.43;13.20;;;;;;;5.29;58.78;101699.91;678059;29;1268;-84
2022/12/03 00:12:21;;;;;;;20.35;13.30;;;;;;;5.30;58.58;101705.97;678004;29;1081;-83
2022/12/03 00:12:42;;;;;;;21.00;13.40;;;;;;;5.36;58.61;101710.66;677981;29;1196;-82
2022/12/03 00:13:02;;;;;;;21.07;13.70;;;;;;;5.39;58.61;101718.63;680562;29;1051;-84
2022/12/03 00:13:23;;;;;;;22.77;14.57;;;;;;;5.30;58.73;101711.16;675203;29;1307;-83
2022/12/03 00:13:44;;;;;;;22.52;14.25;;;;;;;5.30;58.69;101712.06;680803;29;788;-82
2022/12/03 00:14:04;;;;;;;21.98;14.15;;;;;;;5.32;58.70;101704.38;677892;29;1143;-83
2022/12/03 00:14:25;;;;;;;21.15;13.68;;;;;;;5.33;58.76;101711.34;677929;29;1209;-83
2022/12/03 00:14:46;;;;;;;20.83;13.73;;;;;;;5.34;58.64;101711.47;680693;29;1262;-83
2022/12/03 00:15:10;;;;;;;20.35;13.15;;;;;;;5.34;58.48;101713.16;680754;29;1162;-83
2022/12/03 00:15:30;;;;;;;20.67;13.20;;;;;;;5.31;57.96;101708.69;677957;29;1139;-83
2022/12/03 00:15:51;;;;;;;21.15;13.65;;;;;;;5.33;58.58;101711.34;678007;29;1190;-83
2022/12/03 00:16:14;;;;;;;22.20;14.00;;;;;;;5.39;58.73;101718.63;672838;29;1086;-83
2022/12/03 00:16:35;;;;;;;20.75;13.80;;;;;;;5.28;58.66;101707.59;675492;29;848;-83
2022/12/03 00:16:55;;;;;;;20.23;13.73;;;;;;;5.33;58.15;101707.06;675441;29;1191;-83
2022/12/03 00:17:16;;;;;;;19.60;13.63;;;;;;;5.43;58.28;101721.53;675279;29;1247;-84
2022/12/03 00:17:36;;;;;;;19.80;13.90;;;;;;;5.38;58.29;101712.56;675467;29;1304;-83
2022/12/03 00:17:57;;;;;;;21.40;14.20;;;;;;;5.33;58.51;101707.06;678160;29;1154;-83
2022/12/03 00:18:18;;;;;;;21.67;14.23;;;;;;;5.40;58.54;101718.72;677877;29;1079;-83
2022/12/03 00:18:38;;;;;;;22.17;14.35;;;;;;;5.38;58.55;101711.63;680639;29;1282;-83
2022/12/03 00:18:59;;;;;;;20.10;13.70;;;;;;;5.35;58.03;101704.59;678131;29;815;-83
2022/12/03 00:19:19;;;;;;;19.63;13.40;;;;;;;5.39;58.32;101711.75;672632;29;1436;-83
2022/12/03 00:19:58;;;;;;;19.63;12.90;;;;;;;5.37;58.23;101705.59;675555;29;1305;-83
2022/12/03 00:20:21;;;;;;;20.70;13.50;;;;;;;5.37;58.11;101708.19;675303;29;1125;-83
2022/12/03 00:20:42;;;;;;;20.80;13.80;;;;;;;5.42;58.35;101716.22;678216;29;835;-83
2022/12/03 00:21:03;;;;;;;21.13;14.15;;;;;;;5.36;57.99;101706.38;678082;29;1051;-83
2022/12/03 00:21:23;;;;;;;21.77;14.40;;;;;;;5.39;57.94;101703.09;680635;29;1192;-83
2022/12/03 00:21:44;;;;;;;21.30;14.03;;;;;;;5.37;58.21;101705.59;683337;28;1127;-83
2022/12/03 00:22:04;;;;;;;20.50;13.73;;;;;;;5.33;58.27;101701.00;680636;29;1172;-83
2022/12/03 00:22:25;;;;;;;21.15;13.60;;;;;;;5.27;58.06;101701.50;677962;29;1162;-83
2022/12/03 00:22:46;;;;;;;21.60;13.90;;;;;;;5.31;58.09;101697.41;678105;29;1112;-83
2022/12/03 00:23:06;;;;;;;22.15;14.02;;;;;;;5.34;58.39;101705.41;680725;29;998;-83
2022/12/03 00:23:27;;;;;;;21.02;13.73;;;;;;;5.26;58.58;101709.16;680647;29;1170;-83
2022/12/03 00:23:47;;;;;;;19.43;13.20;;;;;;;5.30;58.38;101706.91;678205;29;930;-83
2022/12/03 00:24:14;;;;;;;20.45;13.43;;;;;;;5.24;58.36;101709.06;678013;29;1308;-83
2022/12/03 00:24:34;;;;;;;21.08;13.75;;;;;;;5.20;58.53;101700.22;677021;29;1000;-83
2022/12/03 00:24:55;;;;;;;21.33;13.68;;;;;;;5.23;58.29;101703.78;675509;29;848;-83
2022/12/03 00:25:15;;;;;;;21.17;13.48;;;;;;;5.19;58.49;101703.59;675184;29;1167;-83
2022/12/03 00:25:36;;;;;;;21.70;13.80;;;;;;;5.27;58.87;101708.38;675513;29;1256;-83
2022/12/03 00:25:57;;;;;;;21.40;13.90;;;;;;;5.27;58.27;101695.44;675487;29;1271;-83
2022/12/03 00:26:17;;;;;;;22.40;14.00;;;;;;;5.28;58.02;101697.22;675258;29;1318;-84
2022/12/03 00:26:38;;;;;;;23.00;14.10;;;;;;;5.36;58.11;101705.47;677919;29;1974;-83
2022/12/03 00:26:58;;;;;;;22.00;13.80;;;;;;;5.43;58.13;101721.53;678196;29;1067;-84
2022/12/03 00:27:19;;;;;;;20.90;13.77;;;;;;;5.23;58.06;101703.78;675115;29;1182;-83
2022/12/03 00:27:39;;;;;;;20.30;13.60;;;;;;;5.34;58.17;101718.34;675346;29;1118;-82
2022/12/03 00:28:00;;;;;;;21.45;13.90;;;;;;;5.29;58.24;101702.47;672909;29;1261;-83
2022/12/03 00:28:20;;;;;;;22.88;14.00;;;;;;;5.34;57.86;101713.16;672707;29;1333;-83
2022/12/03 00:28:41;;;;;;;22.97;13.93;;;;;;;5.32;58.45;101702.69;672989;29;955;-82
2022/12/03 00:29:02;;;;;;;23.10;14.05;;;;;;;5.32;58.18;101699.22;672732;29;1070;-83
2022/12/03 00:29:22;;;;;;;21.33;13.50;;;;;;;5.42;58.24;101711.97;675267;29;1281;-83
2022/12/03 00:29:43;;;;;;;22.17;13.73;;;;;;;5.38;58.20;101712.56;672956;29;1171;-83
2022/12/03 00:30:05;;;;;;;21.93;13.40;;;;;;;5.32;58.20;101694.03;672841;29;1133;-83
2022/12/03 00:30:25;;;;;;;23.02;14.02;;;;;;;5.39;57.90;101706.56;672521;29;1211;-83
2022/12/03 00:30:46;;;;;;;22.30;13.85;;;;;;;5.34;57.86;101706.28;675478;29;717;-83
2022/12/03 00:31:12;;;;;;;20.88;14.13;;;;;;;5.38;58.00;101704.78;675432;29;1051;-83
2022/12/03 00:31:33;;;;;;;20.88;14.00;;;;;;;5.36;58.17;101711.56;675397;29;1966;-83
2022/12/03 00:31:54;;;;;;;20.58;13.93;;;;;;;5.34;57.99;101700.22;680721;29;1064;-83
2022/12/03 00:32:14;;;;;;;20.67;13.67;;;;;;;5.40;57.91;101707.47;675275;29;1280;-84
2022/12/03 00:32:35;;;;;;;20.38;13.20;;;;;;;5.34;57.76;101705.41;672842;29;1227;-83
2022/12/03 00:32:55;;;;;;;21.52;13.40;;;;;;;5.30;57.52;101705.97;672907;29;789;-83
2022/12/03 00:33:16;;;;;;;22.53;14.07;;;;;;;5.27;58.03;101700.63;675206;29;1231;-83
2022/12/03 00:33:36;;;;;;;22.75;14.35;;;;;;;5.32;58.07;101705.28;678027;29;1167;-83
2022/12/03 00:34:02;;;;;;;22.10;14.10;;;;;;;5.40;57.96;101708.34;680732;29;1023;-83
2022/12/03 00:34:23;;;;;;;21.33;13.68;;;;;;;5.41;58.00;101704.09;680404;29;1195;-83
2022/12/03 00:34:43;;;;;;;22.00;14.00;;;;;;;5.47;57.38;101710.53;678139;29;970;-83
2022/12/03 00:35:04;;;;;;;21.50;14.13;;;;;;;5.47;57.59;101709.66;678020;29;1150;-83
2022/12/03 00:35:25;;;;;;;20.20;13.40;;;;;;;5.48;57.80;101716.63;680394;29;1275;-83
2022/12/03 00:35:45;;;;;;;20.37;13.53;;;;;;;5.42;57.84;101706.78;678115;29;1013;-83
2022/12/03 00:36:06;;;;;;;22.17;13.10;;;;;;;5.50;57.61;101709.84;678043;29;1109;-83
2022/12/03 00:36:27;;;;;;;22.27;13.30;;;;;;;5.48;57.71;101712.34;677892;29;1177;-83
2022/12/03 00:36:47;;;;;;;21.60;12.73;;;;;;;5.42;57.38;101695.53;683046;29;1068;-83
2022/12/03 00:37:08;;;;;;;19.47;12.60;;;;;;;5.41;57.31;101704.97;680482;29;1294;-83
2022/12/03 00:37:29;;;;;;;20.00;13.13;;;;;;;5.43;57.85;101708.56;680508;29;1518;-83
2022/12/03 00:37:49;;;;;;;21.08;13.82;;;;;;;5.42;57.82;101711.97;680741;29;1295;-83
2022/12/03 00:38:10;;;;;;;22.67;14.40;;;;;;;5.36;57.60;101696.03;677987;29;1083;-83
2022/12/03 00:38:30;;;;;;;23.15;14.00;;;;;;;5.38;57.48;101704.78;675361;29;1177;-83
2022/12/03 00:38:51;;;;;;;23.20;13.82;;;;;;;5.40;57.71;101703.19;672765;29;1323;-84
2022/12/03 00:39:11;;;;;;;23.33;13.70;;;;;;;5.40;57.63;101703.19;680541;29;1175;-83
2022/12/03 00:39:32;;;;;;;24.23;13.90;;;;;;;5.38;57.75;101701.28;677891;29;1312;-83
2022/12/03 00:39:55;;;;;;;23.05;13.55;;;;;;;5.43;57.68;101710.25;675590;29;758;-83
2022/12/03 00:40:16;;;;;;;22.52;13.82;;;;;;;5.37;57.76;101700.41;675204;29;1223;-83
2022/12/03 00:40:37;;;;;;;21.95;13.70;;;;;;;5.36;57.89;101696.03;678142;29;729;-83
2022/12/03 00:40:57;;;;;;;22.45;14.02;;;;;;;5.40;57.61;101705.78;677971;29;1195;-83
2022/12/03 00:41:18;;;;;;;20.77;13.23;;;;;;;5.41;57.58;101710.16;677759;29;1082;-82
2022/12/03 00:41:38;;;;;;;19.52;13.10;;;;;;;5.34;57.64;101702.81;678025;29;1177;-83
2022/12/03 00:41:59;;;;;;;19.27;13.00;;;;;;;5.34;57.65;101698.50;680730;29;776;-84
2022/12/03 00:42:20;;;;;;;20.03;13.47;;;;;;;5.38;57.74;101704.78;682841;29;1062;-83
2022/12/03 00:42:40;;;;;;;20.92;13.60;;;;;;;5.39;57.72;101701.41;680663;29;804;-83
2022/12/03 00:43:01;;;;;;;22.55;13.95;;;;;;;5.42;57.31;101711.97;677996;29;1201;-83
2022/12/03 00:43:21;;;;;;;23.27;14.33;;;;;;;5.42;57.79;101706.78;675210;29;1283;-83
2022/12/03 00:43:42;;;;;;;23.67;14.82;;;;;;;5.37;57.36;101703.00;677994;29;765;-82
2022/12/03 00:44:03;;;;;;;24.60;15.18;;;;;;;5.36;57.73;101696.03;677928;29;1058;-83
2022/12/03 00:44:32;;;;;;;24.10;15.17;;;;;;;5.38;57.43;101709.97;680024;29;1075;-83
2022/12/03 00:44:53;;;;;;;22.20;14.45;;;;;;;5.36;57.53;101701.22;680504;29;1245;-83
2022/12/03 00:45:14;;;;;;;21.30;14.20;;;;;;;5.36;57.82;101698.63;677731;29;1299;-83
2022/12/03 00:45:35;;;;;;;22.65;14.20;;;;;;;5.27;57.70;101695.44;680477;29;1020;-83
2022/12/03 00:45:55;;;;;;;23.70;14.63;;;;;;;5.37;57.62;101708.19;677827;29;1327;-82
2022/12/03 00:46:16;;;;;;;24.67;14.70;;;;;;;5.40;57.75;101705.78;677644;29;1082;-83
2022/12/03 00:46:37;;;;;;;23.85;14.68;;;;;;;5.31;57.80;101700.91;680117;29;1911;-83
2022/12/03 00:46:58;;;;;;;24.20;14.47;;;;;;;5.30;57.64;101690.44;677875;29;867;-83
2022/12/03 00:47:18;;;;;;;23.03;14.30;;;;;;;5.34;57.82;101693.34;677629;29;1146;-83
2022/12/03 00:47:39;;;;;;;23.60;14.30;;;;;;;5.36;57.84;101701.22;677705;29;1300;-83
2022/12/03 00:47:59;;;;;;;22.70;13.93;;;;;;;5.35;57.79;101694.25;675283;29;1048;-83
2022/12/03 00:48:20;;;;;;;22.65;14.18;;;;;;;5.41;57.84;101694.63;680084;29;1001;-83
2022/12/03 00:48:40;;;;;;;22.27;14.27;;;;;;;5.39;57.63;101701.41;680546;29;1091;-83
2022/12/03 00:49:01;;;;;;;23.47;14.83;;;;;;;5.42;57.64;101703.28;677836;29;1049;-83
2022/12/03 00:49:21;;;;;;;23.52;14.88;;;;;;;5.42;57.42;101701.63;675078;29;1102;-83
2022/12/03 00:49:42;;;;;;;23.25;14.90;;;;;;;5.35;57.66;101694.25;680500;29;1211;-83
2022/12/03 00:50:04;;;;;;;24.27;14.40;;;;;;;5.38;57.68;101696.09;680372;29;1200;-83
2022/12/03 00:50:24;;;;;;;24.00;13.80;;;;;;;5.35;57.59;101702.00;677592;29;1273;-83
2022/12/03 00:50:45;;;;;;;23.77;13.48;;;;;;;5.38;57.88;101694.44;680612;29;771;-83
2022/12/03 00:51:08;;;;;;;20.23;13.20;;;;;;;5.42;57.58;101704.19;680403;29;1308;-83
2022/12/03 00:51:28;;;;;;;21.53;13.40;;;;;;;5.48;57.54;101709.75;683105;28;1024;-83
2022/12/03 00:51:49;;;;;;;22.02;13.88;;;;;;;5.40;57.67;101692.81;683235;28;764;-83
2022/12/03 00:52:09;;;;;;;22.60;14.17;;;;;;;5.46;57.52;101708.75;680507;29;1248;-83
2022/12/03 00:52:30;;;;;;;23.80;14.60;;;;;;;5.46;57.42;101705.28;680559;29;1139;-83
2022/12/03 00:52:50;;;;;;;24.27;14.75;;;;;;;5.42;57.86;101701.63;683323;28;887;-83
2022/12/03 00:53:11;;;;;;;25.13;15.40;;;;;;;5.48;57.59;101701.09;683193;29;1088;-83
2022/12/03 00:53:32;;;;;;;25.63;15.40;;;;;;;5.51;57.51;101708.19;680502;29;1067;-83
2022/12/03 00:53:52;;;;;;;26.27;15.80;;;;;;;5.48;57.85;101707.16;680561;29;1167;-83
2022/12/03 00:54:13;;;;;;;27.80;15.97;;;;;;;5.45;57.51;101695.72;680378;29;1107;-83
2022/12/03 00:54:33;;;;;;;27.80;16.08;;;;;;;5.37;57.51;101697.81;680081;29;1191;-83
2022/12/03 00:54:54;;;;;;;26.55;15.50;;;;;;;5.41;57.41;101699.78;677958;29;1147;-83
2022/12/03 00:55:15;;;;;;;25.00;15.10;;;;;;;5.41;57.70;101699.78;677815;29;1139;-83
2022/12/03 00:55:35;;;;;;;25.15;15.05;;;;;;;5.43;57.57;101693.03;675384;29;1229;-83
2022/12/03 00:55:56;;;;;;;27.80;15.80;;;;;;;5.37;57.41;101696.91;680808;29;760;-83
2022/12/03 00:56:17;;;;;;;28.80;16.55;;;;;;;5.15;58.04;101701.59;680485;29;1308;-83
2022/12/03 00:56:38;;;;;;;29.40;17.13;;;;;;;5.10;58.57;101697.84;680447;29;780;-83
2022/12/03 00:56:58;;;;;;;29.10;17.17;;;;;;;5.26;58.15;101699.72;683215;29;788;-83
2022/12/03 00:57:19;;;;;;;27.63;16.17;;;;;;;5.29;58.07;101704.19;677853;29;1128;-83
2022/12/03 00:57:39;;;;;;;26.60;15.32;;;;;;;5.27;57.73;101693.72;680599;29;907;-83
2022/12/03 00:58:00;;;;;;;26.93;15.30;;;;;;;5.28;57.78;101689.47;678107;29;937;-84
2022/12/03 00:58:20;;;;;;;26.58;15.18;;;;;;;5.34;58.01;101701.09;680310;29;1072;-83
2022/12/03 00:58:41;;;;;;;26.35;15.55;;;;;;;5.39;57.68;101714.34;680616;29;725;-83
2022/12/03 00:59:01;;;;;;;24.57;15.27;;;;;;;5.34;57.83;101697.63;680420;29;1112;-83
2022/12/03 00:59:22;;;;;;;25.42;15.77;;;;;;;5.40;57.42;101700.59;677902;29;1217;-83
2022/12/03 00:59:42;;;;;;;25.05;15.20;;;;;;;5.42;57.60;101699.03;680628;29;1186;-83
2022/12/03 01:00:05;;;;;;;25.60;15.47;;;;;;;5.48;57.73;101703.69;680614;29;1010;-83
2022/12/03 01:00:25;;;;;;;25.95;15.20;;;;;;;5.46;57.35;101713.94;680426;29;1231;-83
2022/12/03 01:00:46;;;;;;;25.23;14.93;;;;;;;5.39;57.80;101691.03;678057;29;1114;-83
2022/12/03 01:01:06;;;;;;;24.45;14.70;;;;;;;5.39;57.29;101691.03;677895;29;974;-83
2022/12/03 01:01:27;;;;;;;22.67;13.95;;;;;;;5.42;57.81;101698.13;680574;29;993;-83
2022/12/03 01:01:48;;;;;;;24.90;14.70;;;;;;;5.34;57.78;101692.47;680619;29;780;-83
2022/12/03 01:02:08;;;;;;;23.98;14.35;;;;;;;5.37;57.72;101687.47;680592;29;1092;-83
2022/12/03 01:02:29;;;;;;;24.73;15.10;;;;;;;5.32;57.78;101688.84;683207;29;1064;-83
2022/12/03 01:02:51;;;;;;;24.43;15.33;;;;;;;5.30;57.71;101693.94;683283;29;816;-83
2022/12/03 01:03:12;;;;;;;25.50;15.70;;;;;;;5.34;57.72;101697.63;680523;29;1090;-83
2022/12/03 01:03:32;;;;;;;25.23;15.17;;;;;;;5.31;57.72;101697.41;680615;29;1093;-83
2022/12/03 01:03:53;;;;;;;25.30;15.15;;;;;;;5.33;57.83;101695.81;675317;29;1053;-83
2022/12/03 01:04:14;;;;;;;25.00;14.90;;;;;;;5.34;57.84;101695.03;675190;29;1131;-83
2022/12/03 01:04:35;;;;;;;24.05;14.65;;;;;;;5.40;57.86;101703.19;677859;29;1138;-83
2022/12/03 01:04:55;;;;;;;24.48;14.85;;;;;;;5.36;57.79;101698.63;675451;29;749;-83
2022/12/03 01:05:17;;;;;;;23.73;14.73;;;;;;;5.46;57.77;101706.16;675197;29;1113;-83
2022/12/03 01:05:37;;;;;;;24.17;15.00;;;;;;;5.36;57.77;101696.03;677894;29;1390;-83
2022/12/03 01:05:58;;;;;;;24.50;14.95;;;;;;;5.43;57.79;101703.41;677989;29;840;-83
2022/12/03 01:06:19;;;;;;;25.97;15.57;;;;;;;5.37;57.55;101697.81;682875;29;1166;-83
2022/12/03 01:06:39;;;;;;;25.27;15.10;;;;;;;5.29;57.63;101691.25;680272;29;1991;-84
2022/12/03 01:07:00;;;;;;;24.05;14.50;;;;;;;5.44;57.91;101710.38;677898;29;1181;-84
2022/12/03 01:07:21;;;;;;;23.30;14.10;;;;;;;5.36;57.85;101706.38;682840;29;1294;-84
2022/12/03 01:07:41;;;;;;;24.50;14.97;;;;;;;5.38;57.83;101697.00;680564;29;1075;-84
2022/12/03 01:08:02;;;;;;;24.75;15.50;;;;;;;5.32;58.00;101701.78;677852;29;1312;-83
2022/12/03 01:08:23;;;;;;;24.50;15.30;;;;;;;5.34;58.35;101698.50;683087;28;1128;-83
2022/12/03 01:08:43;;;;;;;23.45;14.88;;;;;;;5.36;58.03;101692.53;683245;28;876;-84
2022/12/03 01:09:04;;;;;;;24.27;15.50;;;;;;;5.37;57.90;101703.00;680613;29;1172;-84
2022/12/03 01:09:24;;;;;;;25.23;15.63;;;;;;;5.32;57.68;101705.28;685671;28;1079;-83
2022/12/03 01:09:45;;;;;;;26.35;15.75;;;;;;;5.35;57.68;101696.84;680523;29;1190;-83
2022/12/03 01:10:06;;;;;;;25.63;15.07;;;;;;;5.38;57.70;101709.06;680434;29;1269;-83
2022/12/03 01:10:27;;;;;;;24.65;14.45;;;;;;;5.37;57.74;101707.25;680449;29;1068;-84
2022/12/03 01:10:47;;;;;;;23.47;14.10;;;;;;;5.42;57.78;101711.06;677833;29;1398;-84
2022/12/03 01:11:36;;;;;;;25.15;14.52;;;;;;;5.40;57.64;101705.78;677612;29;1332;-83
2022/12/03 01:11:48;;;;;;;25.80;15.57;;;;;;;5.30;58.13;101705.97;677751;29;1249;-83
2022/12/03 01:12:10;;;;;;;25.80;15.60;;;;;;;5.42;57.98;101716.22;683159;29;994;-84
2022/12/03 01:12:31;;;;;;;27.05;15.40;;;;;;;5.43;57.82;101716.34;680413;29;1095;-83
2022/12/03 01:12:51;;;;;;;24.55;14.57;;;;;;;5.38;57.59;101702.19;680583;29;1189;-83
2022/12/03 01:13:12;;;;;;;24.00;14.55;;;;;;;5.42;57.76;101711.97;680391;29;1072;-83
2022/12/03 01:13:33;;;;;;;24.83;14.40;;;;;;;5.41;57.70;101709.28;683179;29;1217;-83
2022/12/03 01:13:53;;;;;;;26.80;15.10;;;;;;;5.42;57.64;101700.69;680610;29;1084;-83
2022/12/03 01:14:16;;;;;;;26.57;14.83;;;;;;;5.38;57.49;101709.06;682923;28;1033;-83
2022/12/03 01:14:36;;;;;;;25.52;15.60;;;;;;;5.37;57.48;101699.50;680113;29;1231;-83
2022/12/03 01:14:57;;;;;;;24.77;15.20;;;;;;;5.41;57.42;101704.97;680135;29;1091;-83
2022/12/03 01:15:18;;;;;;;23.73;15.02;;;;;;;5.46;57.42;101710.47;675177;29;1124;-82
2022/12/03 01:15:39;;;;;;;23.80;14.45;;;;;;;5.48;57.40;101717.50;680597;29;1136;-83
2022/12/03 01:16:11;;;;;;;24.67;14.10;;;;;;;5.46;57.49;101711.34;680427;29;1184;-83
2022/12/03 01:16:32;;;;;;;24.90;14.15;;;;;;;5.48;57.40;101721.81;680484;29;1228;-84
2022/12/03 01:16:53;;;;;;;24.42;14.65;;;;;;;5.35;57.94;101709.78;680405;29;807;-83
2022/12/03 01:17:13;;;;;;;24.65;14.90;;;;;;;5.33;57.71;101706.16;680348;29;1196;-83
2022/12/03 01:17:34;;;;;;;24.83;14.90;;;;;;;5.38;57.79;101717.72;683050;29;1115;-84
2022/12/03 01:17:55;;;;;;;23.83;14.10;;;;;;;5.34;57.66;101713.16;683202;29;1122;-83
2022/12/03 01:18:16;;;;;;;22.87;13.47;;;;;;;5.34;57.83;101708.00;682998;29;1056;-83
2022/12/03 01:18:36;;;;;;;23.10;13.40;;;;;;;5.30;57.90;101698.22;683214;29;894;-83
2022/12/03 01:18:57;;;;;;;23.80;13.65;;;;;;;5.36;57.94;101706.38;680511;29;1185;-83
2022/12/03 01:19:18;;;;;;;23.00;13.57;;;;;;;5.39;57.62;101714.34;682934;29;1139;-83
2022/12/03 01:19:39;;;;;;;23.08;13.60;;;;;;;5.35;57.78;101709.78;680666;29;808;-82
2022/12/03 01:20:00;;;;;;;22.02;13.80;;;;;;;5.40;57.71;101723.00;675325;29;1331;-83
2022/12/03 01:20:21;;;;;;;23.73;14.48;;;;;;;5.30;57.88;101705.97;672605;29;1089;-83
2022/12/03 01:20:42;;;;;;;23.75;14.68;;;;;;;5.31;57.96;101705.19;675367;29;923;-83
2022/12/03 01:21:02;;;;;;;26.10;14.50;;;;;;;5.36;57.75;101706.38;675368;29;1179;-84
2022/12/03 01:21:23;;;;;;;25.58;14.45;;;;;;;5.32;57.84;101705.28;675204;29;1174;-84
2022/12/03 01:21:46;;;;;;;24.83;14.30;;;;;;;5.34;57.71;101718.34;677967;29;1238;-83
2022/12/03 01:22:07;;;;;;;23.02;13.90;;;;;;;5.30;57.93;101717.25;680453;29;1095;-83
2022/12/03 01:22:28;;;;;;;24.87;13.80;;;;;;;5.32;57.75;101717.31;677815;29;1238;-83
2022/12/03 01:22:48;;;;;;;26.27;13.97;;;;;;;5.24;57.82;101701.31;678036;29;888;-83
2022/12/03 01:23:09;;;;;;;26.25;14.65;;;;;;;5.28;57.59;101720.53;680406;29;1136;-83
2022/12/03 01:23:29;;;;;;;26.93;15.60;;;;;;;5.22;58.05;101702.00;683071;29;1047;-83
2022/12/03 01:23:50;;;;;;;27.67;15.52;;;;;;;5.20;58.00;101700.22;683288;29;887;-83
2022/12/03 01:24:11;;;;;;;27.35;15.20;;;;;;;5.26;57.97;101709.16;683045;28;1202;-83
2022/12/03 01:24:31;;;;;;;25.63;15.00;;;;;;;5.17;57.93;101702.59;680431;28;1048;-83
2022/12/03 01:24:53;;;;;;;23.80;15.00;;;;;;;5.15;58.13;101713.66;680630;29;1006;-83
2022/12/03 01:25:13;;;;;;;22.98;14.80;;;;;;;5.18;57.94;101706.09;680396;29;1123;-83
2022/12/03 01:25:34;;;;;;;22.90;14.40;;;;;;;5.12;58.12;101698.81;680350;29;1153;-83
2022/12/03 01:25:54;;;;;;;24.53;14.60;;;;;;;5.16;58.09;101702.50;677953;29;1180;-83
2022/12/03 01:26:22;;;;;;;24.83;14.57;;;;;;;5.14;58.13;101707.56;675427;29;1074;-83
2022/12/03 01:26:42;;;;;;;25.83;14.60;;;;;;;5.13;58.36;101708.38;672433;29;1903;-83
2022/12/03 01:27:03;;;;;;;25.25;14.43;;;;;;;5.10;58.22;101707.28;672652;29;1161;-83
2022/12/03 01:27:23;;;;;;;24.33;14.18;;;;;;;5.07;58.09;101706.28;675867;29;1220;-82
2022/12/03 01:27:44;;;;;;;22.77;13.40;;;;;;;5.11;58.22;101706.47;678084;29;1071;-83
2022/12/03 01:28:05;;;;;;;23.10;13.73;;;;;;;5.12;58.07;101706.59;677836;29;1267;-83
2022/12/03 01:28:25;;;;;;;23.20;13.98;;;;;;;5.13;58.23;101713.56;675225;29;1074;-83
2022/12/03 01:28:46;;;;;;;24.13;14.77;;;;;;;5.19;58.23;101719.13;675339;29;765;-83
2022/12/03 01:29:08;;;;;;;23.87;14.70;;;;;;;5.12;58.06;101705.69;680502;28;1301;-83
2022/12/03 01:29:28;;;;;;;24.70;14.48;;;;;;;5.15;58.08;101711.94;680440;29;1128;-83
2022/12/03 01:29:49;;;;;;;25.17;14.57;;;;;;;5.20;57.89;101720.00;683282;29;780;-83
2022/12/03 01:30:11;;;;;;;25.27;14.67;;;;;;;5.16;58.00;101703.38;677827;29;1178;-84
2022/12/03 01:32:15;;;;;;;25.33;14.95;;;;;;;5.17;58.20;101707.75;680454;29;1222;-84
2022/12/03 01:32:30;;;;;;;24.13;14.15;;;;;;;5.23;57.87;101708.97;680376;29;1280;-84
2022/12/03 01:32:51;;;;;;;25.60;14.43;;;;;;;5.14;58.11;101699.81;680668;29;748;-83
2022/12/03 01:33:11;;;;;;;25.30;14.30;;;;;;;5.16;57.62;101708.56;680522;29;1186;-83
2022/12/03 01:33:32;;;;;;;24.35;14.15;;;;;;;5.20;57.68;101717.41;678071;29;1167;-83
2022/12/03 01:33:53;;;;;;;23.05;13.90;;;;;;;5.20;57.72;101710.56;677925;29;1006;-83
2022/12/03 01:34:14;;;;;;;22.97;14.00;;;;;;;5.14;57.82;101693.72;677865;29;1133;-83
2022/12/03 01:34:35;;;;;;;25.10;14.73;;;;;;;5.17;58.15;101712.94;675436;29;1243;-83
2022/12/03 01:34:56;;;;;;;25.90;14.68;;;;;;;5.18;57.54;101704.41;678015;29;1104;-83
2022/12/03 01:35:16;;;;;;;27.80;14.87;;;;;;;5.21;57.67;101708.84;677932;29;1288;-81
2022/12/03 01:35:37;;;;;;;27.50;14.35;;;;;;;5.19;58.14;101713.97;678188;29;710;-83
2022/12/03 01:35:57;;;;;;;25.98;14.38;;;;;;;5.11;58.08;101699.63;675727;29;1187;-83
2022/12/03 01:36:18;;;;;;;23.77;13.83;;;;;;;5.17;57.75;101704.28;677897;29;995;-83
2022/12/03 01:36:39;;;;;;;23.45;14.25;;;;;;;5.16;57.63;101698.22;675309;29;1201;-83
2022/12/03 01:37:00;;;;;;;25.58;14.98;;;;;;;5.17;57.50;101700.00;678044;29;1250;-83
2022/12/03 01:37:23;;;;;;;25.67;15.15;;;;;;;5.30;57.61;101716.34;677997;29;1433;-83
2022/12/03 01:37:44;;;;;;;24.50;14.90;;;;;;;5.23;57.65;101698.63;675785;29;1380;-83
2022/12/03 01:38:04;;;;;;;25.30;14.53;;;;;;;5.20;57.59;101700.22;675477;29;1109;-83
2022/12/03 01:38:25;;;;;;;24.88;14.55;;;;;;;5.25;57.76;101704.78;677818;29;1137;-82
2022/12/03 01:38:47;;;;;;;25.03;14.40;;;;;;;5.30;57.65;101700.81;675472;29;1081;-83
2022/12/03 01:39:08;;;;;;;23.42;13.90;;;;;;;5.32;57.71;101712.16;675402;29;1248;-83
2022/12/03 01:39:28;;;;;;;23.13;13.80;;;;;;;5.26;57.49;101698.81;675480;29;1044;-83
2022/12/03 01:39:49;;;;;;;23.97;13.67;;;;;;;5.27;57.52;101704.09;678145;29;1306;-83
2022/12/03 01:40:14;;;;;;;25.10;14.13;;;;;;;5.18;57.52;101691.47;680563;29;1138;-84
2022/12/03 01:40:35;;;;;;;26.48;14.30;;;;;;;5.23;57.49;101694.34;680252;29;1356;-83
2022/12/03 01:40:55;;;;;;;26.30;14.50;;;;;;;5.27;57.35;101711.84;683361;29;757;-83
2022/12/03 01:41:18;;;;;;;25.67;14.10;;;;;;;5.36;57.53;101716.75;685643;28;1092;-83
2022/12/03 01:41:39;;;;;;;24.92;13.93;;;;;;;5.26;57.50;101704.88;685780;28;1264;-83
2022/12/03 01:42:01;;;;;;;25.02;14.55;;;;;;;5.31;57.36;101710.34;682768;29;1380;-83
2022/12/03 01:42:25;;;;;;;22.15;13.98;;;;;;;5.28;57.34;101700.69;680466;29;1104;-83